sensor_id;sensor_type;location;lat;lon;timestamp;pressure;altitude;pressure_sealevel;temperature;humidity
55994;BME280;67425;52.126;20.638;2023-09-12T00:01:35;57472.72;;;-144.78;51.73
55994;BME280;67425;52.126;20.638;2023-09-12T00:04:00;57497.66;;;-144.78;52.94
55994;BME280;67425;52.126;20.638;2023-09-12T00:06:25;57503.88;;;-144.78;53.16
55994;BME280;67425;52.126;20.638;2023-09-12T00:08:51;57526.72;;;-144.78;53.99
55994;BME280;67425;52.126;20.638;2023-09-12T00:11:17;57520.50;;;-144.78;57.53
55994;BME280;67425;52.126;20.638;2023-09-12T00:13:42;57505.97;;;-144.78;55.39
55994;BME280;67425;52.126;20.638;2023-09-12T00:16:07;57478.97;;;-144.78;54.08
55994;BME280;67425;52.126;20.638;2023-09-12T00:18:39;57514.25;;;-144.78;54.77
55994;BME280;67425;52.126;20.638;2023-09-12T00:21:05;57497.66;;;-144.78;54.38
55994;BME280;67425;52.126;20.638;2023-09-12T00:23:31;57512.19;;;-144.78;55.13
55994;BME280;67425;52.126;20.638;2023-09-12T00:25:57;57512.19;;;-144.78;57.29
55994;BME280;67425;52.126;20.638;2023-09-12T00:28:23;57501.81;;;-144.78;54.67
55994;BME280;67425;52.126;20.638;2023-09-12T00:30:48;57518.41;;;-144.78;54.01
55994;BME280;67425;52.126;20.638;2023-09-12T00:33:13;57514.25;;;-144.78;53.87
55994;BME280;67425;52.126;20.638;2023-09-12T00:35:39;57512.19;;;-144.78;52.99
55994;BME280;67425;52.126;20.638;2023-09-12T00:38:04;57489.34;;;-144.78;53.85
55994;BME280;67425;52.126;20.638;2023-09-12T00:40:31;57530.88;;;-144.78;54.12
55994;BME280;67425;52.126;20.638;2023-09-12T00:42:56;57489.34;;;-144.78;52.30
55994;BME280;67425;52.126;20.638;2023-09-12T00:45:22;57495.56;;;-144.78;52.42
55994;BME280;67425;52.126;20.638;2023-09-12T00:47:47;57510.13;;;-144.78;51.32
55994;BME280;67425;52.126;20.638;2023-09-12T00:50:14;57505.97;;;-144.78;53.70
55994;BME280;67425;52.126;20.638;2023-09-12T00:52:41;57474.81;;;-144.78;53.01
55994;BME280;67425;52.126;20.638;2023-09-12T00:55:07;57508.03;;;-144.78;53.81
55994;BME280;67425;52.126;20.638;2023-09-12T00:57:34;57505.97;;;-144.78;52.89
55994;BME280;67425;52.126;20.638;2023-09-12T01:00:02;57508.03;;;-144.78;50.83
55994;BME280;67425;52.126;20.638;2023-09-12T01:02:31;57483.13;;;-144.78;51.27
55994;BME280;67425;52.126;20.638;2023-09-12T01:04:57;57495.56;;;-144.78;50.87
55994;BME280;67425;52.126;20.638;2023-09-12T01:07:22;57528.81;;;-144.78;52.98
55994;BME280;67425;52.126;20.638;2023-09-12T01:09:47;57535.03;;;-144.78;52.86
55994;BME280;67425;52.126;20.638;2023-09-12T01:12:13;57497.66;;;-144.78;52.96
55994;BME280;67425;52.126;20.638;2023-09-12T01:14:40;57495.56;;;-144.78;53.44
55994;BME280;67425;52.126;20.638;2023-09-12T01:17:05;57493.50;;;-144.78;52.33
55994;BME280;67425;52.126;20.638;2023-09-12T01:19:30;57508.03;;;-144.78;51.82
55994;BME280;67425;52.126;20.638;2023-09-12T01:27:47;57510.13;;;-144.78;50.77
55994;BME280;67425;52.126;20.638;2023-09-12T01:30:17;57499.72;;;-144.78;50.75
55994;BME280;67425;52.126;20.638;2023-09-12T01:32:43;57514.25;;;-144.78;52.78
55994;BME280;67425;52.126;20.638;2023-09-12T01:35:09;57487.28;;;-144.78;51.64
55994;BME280;67425;52.126;20.638;2023-09-12T01:37:34;57499.72;;;-144.78;51.49
55994;BME280;67425;52.126;20.638;2023-09-12T01:40:00;57441.59;;;-144.78;50.92
55994;BME280;67425;52.126;20.638;2023-09-12T01:42:30;57512.19;;;-144.78;50.34
55994;BME280;67425;52.126;20.638;2023-09-12T01:44:56;57526.72;;;-144.78;56.12
55994;BME280;67425;52.126;20.638;2023-09-12T01:47:24;57555.81;;;-144.78;58.25
55994;BME280;67425;52.126;20.638;2023-09-12T01:49:52;57555.81;;;-144.78;58.18
55994;BME280;67425;52.126;20.638;2023-09-12T01:52:19;57526.72;;;-144.78;57.45
55994;BME280;67425;52.126;20.638;2023-09-12T01:54:45;57520.50;;;-144.78;57.92
55994;BME280;67425;52.126;20.638;2023-09-12T01:57:13;57541.25;;;-144.78;57.64
55994;BME280;67425;52.126;20.638;2023-09-12T01:59:39;57562.03;;;-144.78;57.21
55994;BME280;67425;52.126;20.638;2023-09-12T02:02:05;57559.97;;;-144.78;56.68
55994;BME280;67425;52.126;20.638;2023-09-12T02:04:30;57537.09;;;-144.78;56.48
55994;BME280;67425;52.126;20.638;2023-09-12T02:06:55;57535.03;;;-144.78;55.94
55994;BME280;67425;52.126;20.638;2023-09-12T02:09:21;57537.09;;;-144.78;55.61
55994;BME280;67425;52.126;20.638;2023-09-12T02:11:48;57512.19;;;-144.78;56.11
55994;BME280;67425;52.126;20.638;2023-09-12T02:14:13;57555.81;;;-144.78;58.82
55994;BME280;67425;52.126;20.638;2023-09-12T02:16:39;57514.25;;;-144.78;57.67
55994;BME280;67425;52.126;20.638;2023-09-12T02:19:05;57522.56;;;-144.78;56.75
55994;BME280;67425;52.126;20.638;2023-09-12T02:21:31;57522.56;;;-144.78;55.87
55994;BME280;67425;52.126;20.638;2023-09-12T02:23:56;57510.13;;;-144.78;55.75
55994;BME280;67425;52.126;20.638;2023-09-12T02:26:21;57530.88;;;-144.78;56.88
55994;BME280;67425;52.126;20.638;2023-09-12T02:28:47;57526.72;;;-144.78;56.15
55994;BME280;67425;52.126;20.638;2023-09-12T02:31:12;57510.13;;;-144.78;54.57
55994;BME280;67425;52.126;20.638;2023-09-12T02:33:38;57530.88;;;-144.78;56.17
55994;BME280;67425;52.126;20.638;2023-09-12T02:36:04;57539.19;;;-144.78;57.22
55994;BME280;67425;52.126;20.638;2023-09-12T02:38:30;57547.50;;;-144.78;56.23
55994;BME280;67425;52.126;20.638;2023-09-12T02:40:55;57572.41;;;-144.78;57.11
55994;BME280;67425;52.126;20.638;2023-09-12T02:43:21;57543.34;;;-144.78;56.52
55994;BME280;67425;52.126;20.638;2023-09-12T02:45:46;57532.97;;;-144.78;56.11
55994;BME280;67425;52.126;20.638;2023-09-12T02:48:12;57532.97;;;-144.78;55.40
55994;BME280;67425;52.126;20.638;2023-09-12T02:50:37;57530.88;;;-144.78;55.54
55994;BME280;67425;52.126;20.638;2023-09-12T02:53:03;57535.03;;;-144.78;53.89
55994;BME280;67425;52.126;20.638;2023-09-12T02:55:28;57520.50;;;-144.78;54.16
55994;BME280;67425;52.126;20.638;2023-09-12T02:57:54;57510.13;;;-144.78;54.76
55994;BME280;67425;52.126;20.638;2023-09-12T03:00:19;57539.19;;;-144.78;55.27
55994;BME280;67425;52.126;20.638;2023-09-12T03:02:45;57520.50;;;-144.78;54.35
55994;BME280;67425;52.126;20.638;2023-09-12T03:05:10;57512.19;;;-144.78;54.02
55994;BME280;67425;52.126;20.638;2023-09-12T03:07:36;57499.72;;;-144.78;53.79
55994;BME280;67425;52.126;20.638;2023-09-12T03:10:01;57530.88;;;-144.78;54.22
55994;BME280;67425;52.126;20.638;2023-09-12T03:12:27;57512.19;;;-144.78;53.44
55994;BME280;67425;52.126;20.638;2023-09-12T03:14:52;57526.72;;;-144.78;53.38
55994;BME280;67425;52.126;20.638;2023-09-12T03:17:17;57547.50;;;-144.78;53.47
55994;BME280;67425;52.126;20.638;2023-09-12T03:19:43;57535.03;;;-144.78;53.02
55994;BME280;67425;52.126;20.638;2023-09-12T03:22:08;57541.25;;;-144.78;54.55
55994;BME280;67425;52.126;20.638;2023-09-12T03:24:33;57524.66;;;-144.78;55.05
55994;BME280;67425;52.126;20.638;2023-09-12T03:26:59;57535.03;;;-144.78;54.96
55994;BME280;67425;52.126;20.638;2023-09-12T03:29:24;57547.50;;;-144.78;54.82
55994;BME280;67425;52.126;20.638;2023-09-12T03:31:49;57524.66;;;-144.78;55.37
55994;BME280;67425;52.126;20.638;2023-09-12T03:34:15;57553.72;;;-144.78;54.25
55994;BME280;67425;52.126;20.638;2023-09-12T03:36:40;57539.19;;;-144.78;53.21
55994;BME280;67425;52.126;20.638;2023-09-12T03:39:05;57562.03;;;-144.78;53.59
55994;BME280;67425;52.126;20.638;2023-09-12T03:41:36;57520.50;;;-144.78;54.15
55994;BME280;67425;52.126;20.638;2023-09-12T03:44:02;57530.88;;;-144.78;54.24
55994;BME280;67425;52.126;20.638;2023-09-12T03:46:27;57491.41;;;-144.78;53.68
55994;BME280;67425;52.126;20.638;2023-09-12T03:48:52;57547.50;;;-144.78;53.66
55994;BME280;67425;52.126;20.638;2023-09-12T03:51:18;57532.97;;;-144.78;53.09
55994;BME280;67425;52.126;20.638;2023-09-12T03:53:43;57547.50;;;-144.78;52.79
55994;BME280;67425;52.126;20.638;2023-09-12T03:56:08;57518.41;;;-144.78;53.42
55994;BME280;67425;52.126;20.638;2023-09-12T03:58:37;57535.03;;;-144.78;54.15
55994;BME280;67425;52.126;20.638;2023-09-12T04:01:03;57505.97;;;-144.78;53.24
55994;BME280;67425;52.126;20.638;2023-09-12T04:03:28;57514.25;;;-144.78;53.47
55994;BME280;67425;52.126;20.638;2023-09-12T04:05:53;57543.34;;;-144.78;53.48
55994;BME280;67425;52.126;20.638;2023-09-12T04:08:19;57522.56;;;-144.78;52.38
55994;BME280;67425;52.126;20.638;2023-09-12T04:10:44;57520.50;;;-144.78;52.27
55994;BME280;67425;52.126;20.638;2023-09-12T04:13:09;57539.19;;;-144.78;52.13
55994;BME280;67425;52.126;20.638;2023-09-12T04:15:35;57543.34;;;-144.78;52.88
55994;BME280;67425;52.126;20.638;2023-09-12T04:18:00;57539.19;;;-144.78;53.80
55994;BME280;67425;52.126;20.638;2023-09-12T04:20:26;57547.50;;;-144.78;53.27
55994;BME280;67425;52.126;20.638;2023-09-12T04:22:51;57514.25;;;-144.78;52.51
55994;BME280;67425;52.126;20.638;2023-09-12T04:25:16;57530.88;;;-144.78;51.67
55994;BME280;67425;52.126;20.638;2023-09-12T04:27:42;57518.41;;;-144.78;51.38
55994;BME280;67425;52.126;20.638;2023-09-12T04:30:08;57553.72;;;-144.78;52.38
55994;BME280;67425;52.126;20.638;2023-09-12T04:32:34;57526.72;;;-144.78;52.54
55994;BME280;67425;52.126;20.638;2023-09-12T04:34:59;57510.13;;;-144.78;52.20
55994;BME280;67425;52.126;20.638;2023-09-12T04:37:25;57516.34;;;-144.78;52.68
55994;BME280;67425;52.126;20.638;2023-09-12T04:39:50;57530.88;;;-144.78;53.01
55994;BME280;67425;52.126;20.638;2023-09-12T04:42:15;57539.19;;;-144.78;53.34
55994;BME280;67425;52.126;20.638;2023-09-12T04:44:41;57518.41;;;-144.78;52.80
55994;BME280;67425;52.126;20.638;2023-09-12T04:47:07;57518.41;;;-144.78;53.27
55994;BME280;67425;52.126;20.638;2023-09-12T04:49:33;57516.34;;;-144.78;52.81
55994;BME280;67425;52.126;20.638;2023-09-12T04:51:59;57508.03;;;-144.78;52.69
55994;BME280;67425;52.126;20.638;2023-09-12T04:54:24;57503.88;;;-144.78;53.73
55994;BME280;67425;52.126;20.638;2023-09-12T04:56:49;57508.03;;;-144.78;53.73
55994;BME280;67425;52.126;20.638;2023-09-12T04:59:15;57516.34;;;-144.78;53.54
55994;BME280;67425;52.126;20.638;2023-09-12T05:01:40;57518.41;;;-144.78;53.34
55994;BME280;67425;52.126;20.638;2023-09-12T05:04:05;57503.88;;;-144.78;53.72
55994;BME280;67425;52.126;20.638;2023-09-12T05:06:31;57510.13;;;-144.78;53.39
55994;BME280;67425;52.126;20.638;2023-09-12T05:08:56;57539.19;;;-144.78;53.65
55994;BME280;67425;52.126;20.638;2023-09-12T05:11:22;57526.72;;;-144.78;54.24
55994;BME280;67425;52.126;20.638;2023-09-12T05:13:48;57489.34;;;-144.78;53.04
55994;BME280;67425;52.126;20.638;2023-09-12T05:16:14;57512.19;;;-144.78;52.38
55994;BME280;67425;52.126;20.638;2023-09-12T05:18:39;57516.34;;;-144.78;51.68
55994;BME280;67425;52.126;20.638;2023-09-12T05:21:04;57501.81;;;-144.78;51.67
55994;BME280;67425;52.126;20.638;2023-09-12T05:23:30;57487.28;;;-144.78;51.94
55994;BME280;67425;52.126;20.638;2023-09-12T05:25:56;57497.66;;;-144.78;51.87
55994;BME280;67425;52.126;20.638;2023-09-12T05:28:21;57497.66;;;-144.78;51.71
55994;BME280;67425;52.126;20.638;2023-09-12T05:30:47;57451.97;;;-144.78;51.88
55994;BME280;67425;52.126;20.638;2023-09-12T05:33:12;57501.81;;;-144.78;51.72
55994;BME280;67425;52.126;20.638;2023-09-12T05:35:37;57483.13;;;-144.78;51.84
55994;BME280;67425;52.126;20.638;2023-09-12T05:38:03;57493.50;;;-144.78;51.31
55994;BME280;67425;52.126;20.638;2023-09-12T05:40:28;57447.81;;;-144.78;51.78
55994;BME280;67425;52.126;20.638;2023-09-12T05:42:54;57464.41;;;-144.78;51.51
55994;BME280;67425;52.126;20.638;2023-09-12T05:45:19;57468.56;;;-144.78;51.51
55994;BME280;67425;52.126;20.638;2023-09-12T05:47:44;57487.28;;;-144.78;51.72
55994;BME280;67425;52.126;20.638;2023-09-12T05:50:10;57474.81;;;-144.78;51.70
55994;BME280;67425;52.126;20.638;2023-09-12T05:52:36;57456.13;;;-144.78;51.49
55994;BME280;67425;52.126;20.638;2023-09-12T05:55:03;57472.72;;;-144.78;51.38
55994;BME280;67425;52.126;20.638;2023-09-12T05:57:29;57441.59;;;-144.78;50.75
55994;BME280;67425;52.126;20.638;2023-09-12T05:59:58;57454.03;;;-144.78;50.87
55994;BME280;67425;52.126;20.638;2023-09-12T06:02:25;57433.28;;;-144.78;51.00
55994;BME280;67425;52.126;20.638;2023-09-12T06:04:50;57439.50;;;-144.78;51.23
55994;BME280;67425;52.126;20.638;2023-09-12T06:07:15;57447.81;;;-144.78;52.53
55994;BME280;67425;52.126;20.638;2023-09-12T06:09:40;57435.34;;;-144.78;51.95
55994;BME280;67425;52.126;20.638;2023-09-12T06:12:06;57443.66;;;-144.78;51.41
55994;BME280;67425;52.126;20.638;2023-09-12T06:14:31;57435.34;;;-144.78;51.44
55994;BME280;67425;52.126;20.638;2023-09-12T06:16:57;57433.28;;;-144.78;52.05
55994;BME280;67425;52.126;20.638;2023-09-12T06:19:22;57435.34;;;-144.78;51.46
55994;BME280;67425;52.126;20.638;2023-09-12T06:21:47;57408.34;;;-144.78;50.11
55994;BME280;67425;52.126;20.638;2023-09-12T06:24:18;57400.03;;;-144.78;50.89
55994;BME280;67425;52.126;20.638;2023-09-12T06:26:44;57447.81;;;-144.78;50.89
55994;BME280;67425;52.126;20.638;2023-09-12T06:29:09;57427.03;;;-144.78;51.29
55994;BME280;67425;52.126;20.638;2023-09-12T06:31:35;57437.44;;;-144.78;50.97
55994;BME280;67425;52.126;20.638;2023-09-12T06:34:01;57404.19;;;-144.78;50.86
55994;BME280;67425;52.126;20.638;2023-09-12T06:36:27;57402.13;;;-144.78;50.89
55994;BME280;67425;52.126;20.638;2023-09-12T06:38:55;57418.72;;;-144.78;51.80
55994;BME280;67425;52.126;20.638;2023-09-12T06:41:20;57400.03;;;-144.78;50.76
55994;BME280;67425;52.126;20.638;2023-09-12T06:43:46;57410.44;;;-144.78;51.41
55994;BME280;67425;52.126;20.638;2023-09-12T06:46:12;57402.13;;;-144.78;49.45
55994;BME280;67425;52.126;20.638;2023-09-12T06:48:37;57383.44;;;-144.78;49.10
55994;BME280;67425;52.126;20.638;2023-09-12T06:51:08;57412.50;;;-144.78;48.50
55994;BME280;67425;52.126;20.638;2023-09-12T06:53:34;57385.50;;;-144.78;48.15
55994;BME280;67425;52.126;20.638;2023-09-12T06:55:59;57368.91;;;-144.78;47.30
55994;BME280;67425;52.126;20.638;2023-09-12T06:58:25;57385.50;;;-144.78;47.90
55994;BME280;67425;52.126;20.638;2023-09-12T07:00:50;57427.03;;;-144.78;48.64
55994;BME280;67425;52.126;20.638;2023-09-12T07:03:15;57381.34;;;-144.78;47.33
55994;BME280;67425;52.126;20.638;2023-09-12T07:05:42;57373.06;;;-144.78;47.09
55994;BME280;67425;52.126;20.638;2023-09-12T07:08:07;57346.06;;;-144.78;47.28
55994;BME280;67425;52.126;20.638;2023-09-12T07:10:33;57335.66;;;-144.78;46.12
55994;BME280;67425;52.126;20.638;2023-09-12T07:12:59;57327.34;;;-144.78;45.38
55994;BME280;67425;52.126;20.638;2023-09-12T07:15:24;57360.59;;;-144.78;44.79
55994;BME280;67425;52.126;20.638;2023-09-12T07:17:49;57346.06;;;-144.78;45.53
55994;BME280;67425;52.126;20.638;2023-09-12T07:20:15;57383.44;;;-144.78;43.98
55994;BME280;67425;52.126;20.638;2023-09-12T07:22:43;57306.59;;;-144.78;43.19
55994;BME280;67425;52.126;20.638;2023-09-12T07:25:08;57302.44;;;-144.78;42.24
55994;BME280;67425;52.126;20.638;2023-09-12T07:27:36;57302.44;;;-144.78;41.93
55994;BME280;67425;52.126;20.638;2023-09-12T07:30:03;57292.06;;;-144.78;41.42
55994;BME280;67425;52.126;20.638;2023-09-12T07:32:28;57256.75;;;-144.78;41.82
55994;BME280;67425;52.126;20.638;2023-09-12T07:34:54;57302.44;;;-144.78;41.84
55994;BME280;67425;52.126;20.638;2023-09-12T07:37:20;57333.59;;;-144.78;41.29
55994;BME280;67425;52.126;20.638;2023-09-12T07:39:45;57302.44;;;-144.78;40.62
55994;BME280;67425;52.126;20.638;2023-09-12T07:42:10;57287.91;;;-144.78;40.20
55994;BME280;67425;52.126;20.638;2023-09-12T07:44:35;57294.13;;;-144.78;40.87
55994;BME280;67425;52.126;20.638;2023-09-12T07:47:01;57306.59;;;-144.78;41.82
55994;BME280;67425;52.126;20.638;2023-09-12T07:49:26;57294.13;;;-144.78;41.18
55994;BME280;67425;52.126;20.638;2023-09-12T07:51:52;57310.75;;;-144.78;42.37
55994;BME280;67425;52.126;20.638;2023-09-12T07:54:17;57308.66;;;-144.78;41.99
55994;BME280;67425;52.126;20.638;2023-09-12T07:56:43;57339.81;;;-144.78;42.29
55994;BME280;67425;52.126;20.638;2023-09-12T07:59:08;57273.38;;;-144.78;40.17
55994;BME280;67425;52.126;20.638;2023-09-12T08:01:35;57267.13;;;-144.78;39.11
55994;BME280;67425;52.126;20.638;2023-09-12T08:04:00;57223.53;;;-144.78;39.45
55994;BME280;67425;52.126;20.638;2023-09-12T08:06:25;57231.84;;;-144.78;39.02
55994;BME280;67425;52.126;20.638;2023-09-12T08:08:51;57256.75;;;-144.78;39.51
55994;BME280;67425;52.126;20.638;2023-09-12T08:11:17;57275.44;;;-144.78;39.98
55994;BME280;67425;52.126;20.638;2023-09-12T08:13:42;57248.44;;;-144.78;39.58
55994;BME280;67425;52.126;20.638;2023-09-12T08:16:08;57215.22;;;-144.78;38.86
55994;BME280;67425;52.126;20.638;2023-09-12T08:18:33;57269.22;;;-144.78;39.39
55994;BME280;67425;52.126;20.638;2023-09-12T08:20:58;57283.75;;;-144.78;40.16
55994;BME280;67425;52.126;20.638;2023-09-12T08:23:24;57265.06;;;-144.78;40.09
55994;BME280;67425;52.126;20.638;2023-09-12T08:25:49;57285.81;;;-144.78;39.42
55994;BME280;67425;52.126;20.638;2023-09-12T08:28:14;57225.59;;;-144.78;39.04
55994;BME280;67425;52.126;20.638;2023-09-12T08:30:40;57213.16;;;-144.78;38.09
55994;BME280;67425;52.126;20.638;2023-09-12T08:33:05;57169.53;;;-144.78;37.39
55994;BME280;67425;52.126;20.638;2023-09-12T08:35:32;57194.47;;;-144.78;37.39
55994;BME280;67425;52.126;20.638;2023-09-12T08:37:57;57188.22;;;-144.78;37.37
55994;BME280;67425;52.126;20.638;2023-09-12T08:40:23;57167.47;;;-144.78;37.21
55994;BME280;67425;52.126;20.638;2023-09-12T08:42:50;57107.25;;;-144.78;36.49
55994;BME280;67425;52.126;20.638;2023-09-12T08:45:18;57142.53;;;-144.78;36.80
55994;BME280;67425;52.126;20.638;2023-09-12T08:47:46;57169.53;;;-144.78;37.00
55994;BME280;67425;52.126;20.638;2023-09-12T08:50:13;57150.84;;;-144.78;36.60
55994;BME280;67425;52.126;20.638;2023-09-12T08:52:40;57157.06;;;-144.78;36.87
55994;BME280;67425;52.126;20.638;2023-09-12T08:55:07;57215.22;;;-144.78;36.61
55994;BME280;67425;52.126;20.638;2023-09-12T08:57:33;57138.38;;;-144.78;36.47
55994;BME280;67425;52.126;20.638;2023-09-12T09:00:01;57117.63;;;-144.78;35.99
55994;BME280;67425;52.126;20.638;2023-09-12T09:02:32;57103.09;;;-144.78;35.88
55994;BME280;67425;52.126;20.638;2023-09-12T09:04:59;57128.00;;;-144.78;35.58
55994;BME280;67425;52.126;20.638;2023-09-12T09:07:27;57165.38;;;-144.78;36.09
55994;BME280;67425;52.126;20.638;2023-09-12T09:09:53;57157.06;;;-144.78;37.61
55994;BME280;67425;52.126;20.638;2023-09-12T09:12:19;57117.63;;;-144.78;35.99
55994;BME280;67425;52.126;20.638;2023-09-12T09:14:45;57069.88;;;-144.78;36.10
55994;BME280;67425;52.126;20.638;2023-09-12T09:17:10;57082.31;;;-144.78;35.43
55994;BME280;67425;52.126;20.638;2023-09-12T09:19:45;57140.47;;;-144.78;35.61
55994;BME280;67425;52.126;20.638;2023-09-12T09:22:10;57092.69;;;-144.78;34.86
55994;BME280;67425;52.126;20.638;2023-09-12T09:24:36;57125.94;;;-144.78;36.49
55994;BME280;67425;52.126;20.638;2023-09-12T09:27:01;57101.00;;;-144.78;36.28
55994;BME280;67425;52.126;20.638;2023-09-12T09:29:28;57125.94;;;-144.78;35.10
55994;BME280;67425;52.126;20.638;2023-09-12T09:31:58;57098.94;;;-144.78;34.09
55994;BME280;67425;52.126;20.638;2023-09-12T09:34:24;57084.41;;;-144.78;34.34
55994;BME280;67425;52.126;20.638;2023-09-12T09:36:51;57140.47;;;-144.78;34.56
55994;BME280;67425;52.126;20.638;2023-09-12T09:39:18;57098.94;;;-144.78;35.43
55994;BME280;67425;52.126;20.638;2023-09-12T09:41:50;57109.31;;;-144.78;35.34
55994;BME280;67425;52.126;20.638;2023-09-12T09:44:16;57155.00;;;-144.78;34.70
55994;BME280;67425;52.126;20.638;2023-09-12T09:46:45;57134.22;;;-144.78;34.51
55994;BME280;67425;52.126;20.638;2023-09-12T09:49:11;57057.41;;;-144.78;34.22
55994;BME280;67425;52.126;20.638;2023-09-12T09:51:42;57086.47;;;-144.78;34.21
55994;BME280;67425;52.126;20.638;2023-09-12T09:54:08;57119.69;;;-144.78;34.35
55994;BME280;67425;52.126;20.638;2023-09-12T09:56:45;57117.63;;;-144.78;34.88
55994;BME280;67425;52.126;20.638;2023-09-12T09:59:14;57082.31;;;-144.78;34.27
55994;BME280;67425;52.126;20.638;2023-09-12T10:01:40;57152.94;;;-144.78;33.38
55994;BME280;67425;52.126;20.638;2023-09-12T10:04:07;57090.63;;;-144.78;33.01
55994;BME280;67425;52.126;20.638;2023-09-12T10:06:35;57044.94;;;-144.78;33.05
55994;BME280;67425;52.126;20.638;2023-09-12T10:09:09;57051.16;;;-144.78;32.93
55994;BME280;67425;52.126;20.638;2023-09-12T10:11:37;57074.00;;;-144.78;33.58
55994;BME280;67425;52.126;20.638;2023-09-12T10:14:04;57080.25;;;-144.78;34.02
55994;BME280;67425;52.126;20.638;2023-09-12T10:16:32;57001.34;;;-144.78;33.11
55994;BME280;67425;52.126;20.638;2023-09-12T10:19:19;57022.09;;;-144.78;32.97
55994;BME280;67425;52.126;20.638;2023-09-12T10:21:49;57011.72;;;-144.78;31.44
55994;BME280;67425;52.126;20.638;2023-09-12T10:24:15;56928.66;;;-144.78;31.76
55994;BME280;67425;52.126;20.638;2023-09-12T10:26:44;57040.78;;;-144.78;33.04
55994;BME280;67425;52.126;20.638;2023-09-12T10:29:13;57036.63;;;-144.78;32.92
55994;BME280;67425;52.126;20.638;2023-09-12T10:31:39;56988.88;;;-144.78;32.44
55994;BME280;67425;52.126;20.638;2023-09-12T10:34:05;56999.25;;;-144.78;31.58
55994;BME280;67425;52.126;20.638;2023-09-12T10:36:36;57013.78;;;-144.78;32.12
55994;BME280;67425;52.126;20.638;2023-09-12T10:39:04;56953.56;;;-144.78;30.94
55994;BME280;67425;52.126;20.638;2023-09-12T10:41:30;56901.66;;;-144.78;30.75
55994;BME280;67425;52.126;20.638;2023-09-12T10:43:57;56959.81;;;-144.78;30.76
55994;BME280;67425;52.126;20.638;2023-09-12T10:46:23;56903.75;;;-144.78;30.91
55994;BME280;67425;52.126;20.638;2023-09-12T10:48:49;56943.19;;;-144.78;30.00
55994;BME280;67425;52.126;20.638;2023-09-12T10:51:15;56891.28;;;-144.78;29.61
55994;BME280;67425;52.126;20.638;2023-09-12T10:53:49;56916.19;;;-144.78;30.24
55994;BME280;67425;52.126;20.638;2023-09-12T10:56:20;56934.88;;;-144.78;30.50
55994;BME280;67425;52.126;20.638;2023-09-12T11:01:30;56903.75;;;-144.78;28.82
55994;BME280;67425;52.126;20.638;2023-09-12T11:03:56;56993.03;;;-144.78;30.65
55994;BME280;67425;52.126;20.638;2023-09-12T11:06:24;56934.88;;;-144.78;29.41
55994;BME280;67425;52.126;20.638;2023-09-12T11:09:20;56949.44;;;-144.78;29.92
55994;BME280;67425;52.126;20.638;2023-09-12T11:11:48;56943.19;;;-144.78;29.43
55994;BME280;67425;52.126;20.638;2023-09-12T11:14:16;56901.66;;;-144.78;29.21
55994;BME280;67425;52.126;20.638;2023-09-12T11:16:42;56849.75;;;-144.78;28.76
55994;BME280;67425;52.126;20.638;2023-09-12T11:19:21;56841.44;;;-144.78;29.08
55994;BME280;67425;52.126;20.638;2023-09-12T11:21:50;56882.97;;;-144.78;28.46
55994;BME280;67425;52.126;20.638;2023-09-12T11:24:17;56808.22;;;-144.78;29.22
55994;BME280;67425;52.126;20.638;2023-09-12T11:27:02;56895.44;;;-144.78;28.36
55994;BME280;67425;52.126;20.638;2023-09-12T11:29:38;56841.44;;;-144.78;28.73
55994;BME280;67425;52.126;20.638;2023-09-12T11:32:04;56837.28;;;-144.78;28.03
55994;BME280;67425;52.126;20.638;2023-09-12T11:34:42;56851.84;;;-144.78;28.20
55994;BME280;67425;52.126;20.638;2023-09-12T11:37:08;56874.66;;;-144.78;28.70
55994;BME280;67425;52.126;20.638;2023-09-12T11:39:35;56880.91;;;-144.78;28.67
55994;BME280;67425;52.126;20.638;2023-09-12T11:42:03;56907.91;;;-144.78;28.75
55994;BME280;67425;52.126;20.638;2023-09-12T11:44:30;56870.53;;;-144.78;28.70
55994;BME280;67425;52.126;20.638;2023-09-12T11:47:01;56872.59;;;-144.78;28.51
55994;BME280;67425;52.126;20.638;2023-09-12T11:49:38;56847.69;;;-144.78;28.62
55994;BME280;67425;52.126;20.638;2023-09-12T11:52:08;56855.97;;;-144.78;28.01
55994;BME280;67425;52.126;20.638;2023-09-12T11:54:34;56849.75;;;-144.78;28.62
55994;BME280;67425;52.126;20.638;2023-09-12T11:57:02;56845.59;;;-144.78;29.40
55994;BME280;67425;52.126;20.638;2023-09-12T11:59:30;56868.44;;;-144.78;28.30
55994;BME280;67425;52.126;20.638;2023-09-12T12:01:56;57020.03;;;-144.78;28.93
55994;BME280;67425;52.126;20.638;2023-09-12T12:04:23;56961.88;;;-144.78;28.73
55994;BME280;67425;52.126;20.638;2023-09-12T12:06:50;56845.59;;;-144.78;28.42
55994;BME280;67425;52.126;20.638;2023-09-12T12:09:17;56766.69;;;-144.78;28.62
55994;BME280;67425;52.126;20.638;2023-09-12T12:11:44;56924.50;;;-144.78;28.36
55994;BME280;67425;52.126;20.638;2023-09-12T12:14:14;56829.00;;;-144.78;28.25
55994;BME280;67425;52.126;20.638;2023-09-12T12:16:44;56806.16;;;-144.78;27.91
55994;BME280;67425;52.126;20.638;2023-09-12T12:19:11;56808.22;;;-144.78;27.26
55994;BME280;67425;52.126;20.638;2023-09-12T12:21:39;56839.38;;;-144.78;28.42
55994;BME280;67425;52.126;20.638;2023-09-12T12:24:07;56839.38;;;-144.78;28.67
55994;BME280;67425;52.126;20.638;2023-09-12T12:26:33;56820.69;;;-144.78;27.73
55994;BME280;67425;52.126;20.638;2023-09-12T12:29:04;56739.72;;;-144.78;27.74
55994;BME280;67425;52.126;20.638;2023-09-12T12:31:29;56770.84;;;-144.78;27.93
55994;BME280;67425;52.126;20.638;2023-09-12T12:33:56;56785.38;;;-144.78;27.70
55994;BME280;67425;52.126;20.638;2023-09-12T12:36:22;56843.53;;;-144.78;26.79